createdAt,value
2022-10-16T00:04:46.712Z,47.10
2022-10-16T00:09:49.961Z,47.30
2022-10-16T00:14:54.579Z,48.10
2022-10-16T00:19:57.735Z,47.70
2022-10-16T00:25:00.890Z,47.20
2022-10-16T00:30:06.255Z,47.20
2022-10-16T00:35:09.625Z,47.50
2022-10-16T00:40:13.129Z,47.50
2022-10-16T00:45:17.763Z,47.40
2022-10-16T00:50:29.155Z,47.50
2022-10-16T00:55:32.923Z,47.60
2022-10-16T01:00:37.646Z,47.30
2022-10-16T01:05:56.656Z,47.40
2022-10-16T01:11:04.072Z,47.80
2022-10-16T01:16:16.529Z,47.50
2022-10-16T01:21:24.854Z,48.10
2022-10-16T01:26:44.664Z,48.00
2022-10-16T01:31:52.902Z,48.10
2022-10-16T01:37:00.523Z,47.60
2022-10-16T01:42:07.703Z,47.30
2022-10-16T01:47:15.096Z,47.40
2022-10-16T01:52:22.949Z,47.40
2022-10-16T01:57:28.164Z,47.40
2022-10-16T02:02:33.689Z,47.40
2022-10-16T02:07:36.760Z,47.20
2022-10-16T02:12:43.270Z,47.20
2022-10-16T02:17:47.936Z,47.20
2022-10-16T02:22:53.400Z,47.10
2022-10-16T02:27:59.877Z,47.10
2022-10-16T02:33:08.700Z,47.00
2022-10-16T02:38:12.596Z,47.00
2022-10-16T02:43:15.790Z,47.30
2022-10-16T02:48:20.509Z,47.50
2022-10-16T02:53:23.689Z,47.70
2022-10-16T02:58:26.752Z,47.50
2022-10-16T03:03:31.229Z,47.30
2022-10-16T03:08:34.316Z,47.40
2022-10-16T03:13:37.376Z,47.30
2022-10-16T03:18:42.403Z,47.30
2022-10-16T03:23:45.473Z,47.30
2022-10-16T03:28:48.614Z,47.00
2022-10-16T03:33:53.151Z,47.10
2022-10-16T03:38:56.200Z,47.20
2022-10-16T03:43:59.273Z,47.10
2022-10-16T03:49:06.111Z,47.30
2022-10-16T03:54:12.240Z,47.40
2022-10-16T03:59:15.325Z,47.30
2022-10-16T04:04:19.832Z,47.40
2022-10-16T04:09:23.632Z,47.70
2022-10-16T04:14:26.691Z,47.90
2022-10-16T04:19:31.116Z,48.00
2022-10-16T04:24:34.169Z,48.50
2022-10-16T04:29:37.303Z,48.70
2022-10-16T04:34:42.412Z,48.70
2022-10-16T04:39:45.933Z,49.30
2022-10-16T04:44:49.037Z,48.90
2022-10-16T04:49:53.456Z,49.00
2022-10-16T04:54:57.462Z,49.30
2022-10-16T05:00:00.512Z,49.10
2022-10-16T05:05:05.393Z,49.00
2022-10-16T05:10:08.953Z,49.20
2022-10-16T05:15:12.426Z,49.00
2022-10-16T05:20:16.921Z,48.90
2022-10-16T05:25:20.538Z,49.10
2022-10-16T05:30:23.663Z,48.90
2022-10-16T05:35:28.233Z,49.00
2022-10-16T05:40:31.285Z,49.30
2022-10-16T05:45:34.381Z,49.20
2022-10-16T05:50:39.088Z,49.20
2022-10-16T05:55:42.127Z,49.30
2022-10-16T06:00:45.206Z,49.10
2022-10-16T06:05:49.685Z,49.30
2022-10-16T06:11:03.080Z,49.50
2022-10-16T06:16:07.201Z,49.90
2022-10-16T06:21:14.072Z,49.40
2022-10-16T06:26:19.920Z,49.70
2022-10-16T06:31:23.512Z,49.70
2022-10-16T06:36:28.678Z,49.30
2022-10-16T06:41:32.014Z,49.80
2022-10-16T06:46:35.340Z,49.70
2022-10-16T06:51:43.269Z,50.10
2022-10-16T06:56:46.924Z,50.70
2022-10-16T07:01:50.401Z,50.50
2022-10-16T07:06:54.874Z,50.40
2022-10-16T07:11:57.993Z,50.80
2022-10-16T07:17:01.049Z,50.60
2022-10-16T07:22:05.912Z,50.80
2022-10-16T07:27:08.962Z,50.90
2022-10-16T07:32:12.020Z,50.90
2022-10-16T07:37:16.464Z,51.00
2022-10-16T07:42:21.076Z,51.20
2022-10-16T07:47:24.682Z,51.50
2022-10-16T07:52:29.412Z,51.30
2022-10-16T07:57:32.466Z,51.00
2022-10-16T08:02:35.561Z,51.50
2022-10-16T08:07:40.021Z,51.00
2022-10-16T08:12:43.083Z,50.20
2022-10-16T08:17:46.336Z,50.40
2022-10-16T08:22:50.798Z,50.20
2022-10-16T08:27:53.972Z,49.20
2022-10-16T08:32:57.069Z,49.40
2022-10-16T08:38:01.558Z,49.30
2022-10-16T08:43:23.033Z,48.30
2022-10-16T08:48:32.478Z,47.40
2022-10-16T08:53:45.462Z,47.00
2022-10-16T08:58:49.466Z,46.80
2022-10-16T09:04:15.869Z,47.90
2022-10-16T09:09:40.693Z,46.70
2022-10-16T09:14:57.188Z,46.30
2022-10-16T09:20:18.041Z,45.20
2022-10-16T09:25:23.798Z,46.00
2022-10-16T09:30:31.200Z,45.20
2022-10-16T09:35:39.366Z,44.50
2022-10-16T09:40:44.902Z,44.10
2022-10-16T09:45:59.861Z,44.20
2022-10-16T09:51:05.195Z,43.60
2022-10-16T09:56:14.655Z,44.30
2022-10-16T10:01:17.760Z,43.30
2022-10-16T10:06:27.368Z,43.80
2022-10-16T10:11:52.527Z,42.60
2022-10-16T10:17:17.190Z,42.90
2022-10-16T10:22:27.173Z,42.30
2022-10-16T10:27:41.825Z,42.00
2022-10-16T10:32:54.686Z,41.60
2022-10-16T10:38:07.837Z,41.00
2022-10-16T10:43:24.296Z,41.00
2022-10-16T10:48:52.851Z,41.10
2022-10-16T10:54:08.307Z,40.50
2022-10-16T10:59:48.213Z,40.10
2022-10-16T11:05:16.580Z,41.20
2022-10-16T11:10:23.595Z,41.20
2022-10-16T11:15:32.645Z,41.00
2022-10-16T11:20:40.962Z,40.90
2022-10-16T11:25:46.055Z,40.70
2022-10-16T11:30:56.365Z,40.50
2022-10-16T11:36:06.316Z,39.40
2022-10-16T11:41:19.380Z,39.60
2022-10-16T11:46:26.465Z,39.00
2022-10-16T11:51:37.330Z,39.10
2022-10-16T11:56:42.545Z,38.80
2022-10-16T12:01:52.364Z,39.30
2022-10-16T12:06:59.992Z,38.00
2022-10-16T12:12:03.196Z,38.90
2022-10-16T12:17:28.584Z,39.50
2022-10-16T12:22:35.809Z,38.60
2022-10-16T12:27:40.808Z,39.00
2022-10-16T12:32:47.185Z,38.90
2022-10-16T12:37:51.542Z,38.30
2022-10-16T12:42:54.599Z,39.20
2022-10-16T12:48:00.348Z,38.40
2022-10-16T12:53:05.968Z,37.40
2022-10-16T12:58:31.155Z,38.00
2022-10-16T13:03:55.369Z,36.60
2022-10-16T13:09:22.473Z,36.10
2022-10-16T13:14:53.707Z,36.10
2022-10-16T13:20:08.730Z,36.30
2022-10-16T13:25:25.844Z,35.30
2022-10-16T13:30:31.191Z,34.80
2022-10-16T13:35:37.851Z,36.10
2022-10-16T13:40:51.977Z,35.50
2022-10-16T13:46:00.250Z,34.50
2022-10-16T13:51:14.511Z,36.00
2022-10-16T13:56:19.070Z,34.00
2022-10-16T14:01:28.661Z,35.60
2022-10-16T14:06:38.169Z,34.80
2022-10-16T14:11:48.669Z,34.50
2022-10-16T14:16:52.005Z,34.60
2022-10-16T14:21:56.630Z,35.40
2022-10-16T14:27:00.547Z,34.80
2022-10-16T14:32:05.945Z,35.10
2022-10-16T14:37:17.534Z,34.60
2022-10-16T14:42:24.642Z,33.90
2022-10-16T14:47:29.278Z,34.50
2022-10-16T14:52:34.025Z,34.70
2022-10-16T14:57:39.688Z,34.70
2022-10-16T15:02:44.106Z,35.50
2022-10-16T15:07:50.077Z,36.00
2022-10-16T15:12:53.429Z,35.60
2022-10-16T15:17:58.233Z,36.10
2022-10-16T15:23:03.618Z,36.30
2022-10-16T15:28:07.916Z,36.30
2022-10-16T15:33:16.686Z,36.60
2022-10-16T15:38:23.402Z,36.40
2022-10-16T15:43:26.608Z,36.70
2022-10-16T15:48:30.312Z,36.70
2022-10-16T15:53:35.087Z,37.10
2022-10-16T15:58:38.439Z,36.60
2022-10-16T16:03:42.051Z,36.90
2022-10-16T16:08:46.472Z,37.00
2022-10-16T16:13:49.545Z,37.30
2022-10-16T16:18:56.251Z,37.50
2022-10-16T16:24:00.954Z,37.70
2022-10-16T16:29:05.348Z,37.60
2022-10-16T16:34:08.776Z,37.60
2022-10-16T16:39:13.255Z,37.80
2022-10-16T16:44:17.783Z,38.00
2022-10-16T16:49:20.893Z,38.20
2022-10-16T16:54:25.442Z,38.30
2022-10-16T16:59:28.647Z,38.40
2022-10-16T17:04:31.703Z,38.30
2022-10-16T17:09:36.557Z,38.70
2022-10-16T17:14:39.765Z,38.80
2022-10-16T17:19:42.849Z,38.80
2022-10-16T17:24:51.047Z,39.20
2022-10-16T17:29:54.980Z,39.40
2022-10-16T17:34:58.289Z,39.30
2022-10-16T17:40:02.830Z,39.30
2022-10-16T17:45:06.980Z,39.30
2022-10-16T17:50:13.384Z,39.50
2022-10-16T17:55:24.853Z,39.50
2022-10-16T18:00:30.312Z,40.00
2022-10-16T18:05:33.532Z,39.60
2022-10-16T18:10:38.070Z,39.90
2022-10-16T18:15:41.253Z,40.30
2022-10-16T18:20:44.500Z,40.80
2022-10-16T18:25:55.021Z,40.10
2022-10-16T18:30:58.655Z,41.00
2022-10-16T18:36:03.372Z,40.50
2022-10-16T18:41:07.991Z,40.70
2022-10-16T18:46:13.082Z,40.80
2022-10-16T18:51:18.765Z,40.80
2022-10-16T18:56:24.517Z,41.00
2022-10-16T19:01:29.895Z,40.90
2022-10-16T19:06:35.810Z,40.80
2022-10-16T19:11:41.858Z,40.90
2022-10-16T19:16:45.933Z,40.80
2022-10-16T19:21:55.880Z,40.70
2022-10-16T19:27:00.430Z,40.70
2022-10-16T19:32:06.554Z,41.00
2022-10-16T19:37:11.101Z,40.70
2022-10-16T19:42:15.659Z,40.70
2022-10-16T19:47:20.878Z,41.10
2022-10-16T19:52:26.482Z,40.70
2022-10-16T19:57:33.568Z,40.80
2022-10-16T20:02:37.508Z,41.00
2022-10-16T20:07:40.636Z,41.00
2022-10-16T20:12:45.188Z,41.00
2022-10-16T20:17:48.400Z,41.40
2022-10-16T20:22:51.551Z,41.30
2022-10-16T20:27:56.160Z,41.50
2022-10-16T20:32:59.330Z,41.80
2022-10-16T20:38:02.601Z,41.60
2022-10-16T20:43:08.073Z,41.60
2022-10-16T20:48:12.284Z,42.00
2022-10-16T20:53:15.358Z,41.80
2022-10-16T20:58:19.912Z,41.80
2022-10-16T21:03:23.077Z,42.20
2022-10-16T21:08:26.220Z,42.20
2022-10-16T21:13:30.798Z,42.30
2022-10-16T21:18:34.322Z,42.60
2022-10-16T21:23:37.436Z,42.40
2022-10-16T21:28:41.992Z,42.40
2022-10-16T21:33:45.171Z,42.70
2022-10-16T21:38:48.998Z,42.50
2022-10-16T21:43:54.834Z,42.60
2022-10-16T21:48:58.990Z,43.10
2022-10-16T21:54:02.583Z,42.50
2022-10-16T21:59:07.592Z,42.60
2022-10-16T22:04:11.841Z,42.80
2022-10-16T22:09:16.047Z,42.70
2022-10-16T22:14:21.773Z,42.60
2022-10-16T22:19:24.895Z,42.70
2022-10-16T22:24:30.536Z,42.20
2022-10-16T22:29:35.102Z,42.50
2022-10-16T22:34:38.237Z,42.80
2022-10-16T22:39:41.493Z,42.40
2022-10-16T22:44:45.978Z,42.50
2022-10-16T22:49:49.097Z,43.50
2022-10-16T22:54:52.272Z,42.40
2022-10-16T22:59:56.779Z,42.60
2022-10-16T23:04:59.952Z,42.90
2022-10-16T23:10:03.143Z,42.50
2022-10-16T23:15:08.769Z,42.60
2022-10-16T23:20:12.613Z,43.00
2022-10-16T23:25:15.930Z,42.70
2022-10-16T23:30:20.443Z,42.70
2022-10-16T23:35:25.384Z,42.80
2022-10-16T23:40:28.492Z,42.60
2022-10-16T23:45:32.967Z,42.40
2022-10-16T23:50:36.130Z,42.70
2022-10-16T23:55:39.215Z,42.70
